Napoli Jet — IQTJ — position and weather

sailwx.info

Track history (hours):
 
Tides and Currents Weather Stations Pressure Air Temp Water Temp Dewpoint Dewpoint Depression Visibility Wind Speed Wind Dir Waves Ship Positions

Napoli Jet

Last reported at 2015-Aug-31 18:33 UTC. Time now 2015-Sep-01 08:00 UTC.
Position N 40°39' E 014°16'.

Length 41 m; draft 1.3 m.

Type: Ship. MMSI: 247051400.

Date/timePositionNaut miles runAvg speedWind from/ knotsBaromVisibWave heightAir tempDewpointWater temp
2015-Aug-31 18:33N 40°39' E 014°16'11 5.6
2015-Aug-31 16:33N 40°50' E 014°17'1616.6
2015-Aug-31 15:34N 40°33' E 014°14'1611.2
2015-Aug-31 14:07N 40°49' E 014°17'1424.7
2015-Aug-31 13:33N 40°35' E 014°15'1 1.3
2015-Aug-31 12:33N 40°34' E 014°14'3 3.2
2015-Aug-31 11:34N 40°37' E 014°16'1311.9
2015-Aug-31 10:28N 40°50' E 014°16'1718.5
2015-Aug-31 09:34N 40°33' E 014°14'0 0.0
2015-Aug-31 08:33N 40°33' E 014°14'16 5.4
2015-Aug-31 05:33N 40°50' E 014°17'16 1.6
2015-Aug-30 19:15N 40°33' E 014°14'5 7.2
2015-Aug-30 18:34N 40°38' E 014°16'1210.5
2015-Aug-30 17:26N 40°50' E 014°16'1718.9
2015-Aug-30 16:33N 40°33' E 014°14'1716.8
2015-Aug-30 15:33N 40°50' E 014°15'1716.5
2015-Aug-30 14:32N 40°33' E 014°14'0 0.0
2015-Aug-30 13:33N 40°33' E 014°14'0 0.0
2015-Aug-30 12:33N 40°33' E 014°14'2 2.0
2015-Aug-30 11:33N 40°35' E 014°16'1513.3
2015-Aug-30 10:26N 40°50' E 014°16'1719.0
2015-Aug-30 09:33N 40°33' E 014°14'0 0.0
2015-Aug-30 08:30N 40°33' E 014°14'17 8.1
2015-Aug-30 06:26N 40°50' E 014°16'1 0.1
2015-Aug-29 17:24N 40°50' E 014°17'1719.5
2015-Aug-29 16:33N 40°33' E 014°14'1713.5
2015-Aug-29 15:19N 40°50' E 014°16'1721.5
2015-Aug-29 14:33N 40°33' E 014°14'1 0.8
2015-Aug-29 13:33N 40°34' E 014°14'1 0.5
2015-Aug-29 12:33N 40°34' E 014°14'0 0.0
2015-Aug-29 11:33N 40°34' E 014°14'0 0.5
2015-Aug-29 10:33N 40°33' E 014°14'1711.2
2015-Aug-29 09:04N 40°50' E 014°16'1325.5
2015-Aug-29 08:34N 40°37' E 014°15'9 9.4
2015-Aug-29 07:33N 40°46' E 014°17'2 0.2
2015-Aug-28 18:33N 40°49' E 014°17'1212.1
2015-Aug-28 17:33N 40°37' E 014°16'1110.4
2015-Aug-28 16:31N 40°48' E 014°17'1414.6
2015-Aug-28 15:32N 40°33' E 014°14'1713.1
2015-Aug-28 14:16N 40°50' E 014°17'1623.4
2015-Aug-28 13:33N 40°34' E 014°15'0 0.3
2015-Aug-28 12:33N 40°33' E 014°14'3 2.7
2015-Aug-28 11:33N 40°35' E 014°17'5 4.9
2015-Aug-28 10:33N 40°38' E 014°23'8 7.7
2015-Aug-28 09:33N 40°33' E 014°14'3 3.4
2015-Aug-28 08:32N 40°37' E 014°16'13 0.8
2015-Aug-27 16:33N 40°50' E 014°17'1716.6
2015-Aug-27 15:33N 40°33' E 014°14'1712.6
2015-Aug-27 14:13N 40°50' E 014°17'1724.8
2015-Aug-27 13:33N 40°33' E 014°15'0 0.2
2015-Aug-27 12:33N 40°33' E 014°14'1 1.5
2015-Aug-27 11:34N 40°34' E 014°16'6 6.2
2015-Aug-27 10:33N 40°38' E 014°23'6 2.7
2015-Aug-27 08:25N 40°36' E 014°30'1213.6
2015-Aug-27 07:33N 40°33' E 014°15'16 1.1
2015-Aug-26 16:33N 40°49' E 014°17'1615.9
2015-Aug-26 15:32N 40°33' E 014°14'1712.1
2015-Aug-26 14:10N 40°50' E 014°17'1524.6
2015-Aug-26 13:33N 40°35' E 014°15'2 1.8
2015-Aug-26 12:33N 40°33' E 014°14'1 0.6
2015-Aug-26 11:34N 40°34' E 014°15'1613.1
2015-Aug-26 10:18N 40°50' E 014°17'1721.7
2015-Aug-26 09:32N 40°33' E 014°14'0 0.0
2015-Aug-26 08:31N 40°33' E 014°14'15 0.9
2015-Aug-25 16:32N 40°48' E 014°17'1515.0
2015-Aug-25 15:33N 40°33' E 014°14'1713.0
2015-Aug-25 14:16N 40°50' E 014°16'1622.0
2015-Aug-25 13:34N 40°35' E 014°16'2 1.5
2015-Aug-25 12:33N 40°33' E 014°14'1 0.8
2015-Aug-25 11:33N 40°34' E 014°15'6 6.4
2015-Aug-25 10:33N 40°38' E 014°21'7 7.1
2015-Aug-25 09:33N 40°33' E 014°15'16 0.9
2015-Aug-24 16:33N 40°49' E 014°17'1616.0
2015-Aug-24 15:33N 40°33' E 014°14'1611.9
2015-Aug-24 14:10N 40°50' E 014°17'1524.3
2015-Aug-24 13:33N 40°35' E 014°15'2 1.5
2015-Aug-24 12:33N 40°34' E 014°14'3 3.2
2015-Aug-24 11:33N 40°37' E 014°16'1311.6
2015-Aug-24 10:24N 40°50' E 014°17'1619.6
2015-Aug-24 09:33N 40°33' E 014°14'0 0.0
2015-Aug-24 08:31N 40°33' E 014°14'10 0.7
2015-Aug-23 17:33N 40°44' E 014°14'1010.4
2015-Aug-23 16:33N 40°33' E 014°14'1712.7
2015-Aug-23 15:14N 40°50' E 014°16'1623.3
2015-Aug-23 14:33N 40°34' E 014°15'1 0.6
2015-Aug-23 13:33N 40°34' E 014°14'0 0.5
2015-Aug-23 12:34N 40°34' E 014°14'1 1.5
2015-Aug-23 11:33N 40°34' E 014°16'1612.8
2015-Aug-23 10:20N 40°50' E 014°17'1620.4
2015-Aug-23 09:32N 40°33' E 014°14'0 0.0
2015-Aug-23 08:33N 40°33' E 014°14'17 1.1
2015-Aug-22 17:27N 40°50' E 014°17'1718.7
2015-Aug-22 16:33N 40°33' E 014°14'1713.0
2015-Aug-22 15:17N 40°50' E 014°17'1722.7
2015-Aug-22 14:33N 40°33' E 014°14'0 0.2
2015-Aug-22 13:33N 40°34' E 014°14'0 0.0
2015-Aug-22 12:33N 40°34' E 014°14'2 1.5
2015-Aug-22 11:33N 40°35' E 014°16'1513.5
2015-Aug-22 10:25N 40°50' E 014°17'1718.0
2015-Aug-22 09:30N 40°33' E 014°14'0 0.0
2015-Aug-22 08:33N 40°33' E 014°14'  
Track history (hours):
 
Tides and Currents Weather Stations Pressure Air Temp Water Temp Dewpoint Dewpoint Depression Visibility Wind Speed Wind Dir Waves Ship Positions

Napoli Jet

Last reported at 2015-Aug-31 18:33 UTC. Time now 2015-Sep-01 08:00 UTC.
Position N 40°39' E 014°16'.

Length 41 m; draft 1.3 m.

Type: Ship. MMSI: 247051400.

Date/timePositionNaut miles runAvg speedWind from/ knotsBaromVisibWave heightAir tempDewpointWater temp
2015-Aug-31 18:33N 40°39' E 014°16'11 5.6
2015-Aug-31 16:33N 40°50' E 014°17'1616.6
2015-Aug-31 15:34N 40°33' E 014°14'1611.2
2015-Aug-31 14:07N 40°49' E 014°17'1424.7
2015-Aug-31 13:33N 40°35' E 014°15'1 1.3
2015-Aug-31 12:33N 40°34' E 014°14'3 3.2
2015-Aug-31 11:34N 40°37' E 014°16'1311.9
2015-Aug-31 10:28N 40°50' E 014°16'1718.5
2015-Aug-31 09:34N 40°33' E 014°14'0 0.0
2015-Aug-31 08:33N 40°33' E 014°14'16 5.4
2015-Aug-31 05:33N 40°50' E 014°17'16 1.6
2015-Aug-30 19:15N 40°33' E 014°14'5 7.2
2015-Aug-30 18:34N 40°38' E 014°16'1210.5
2015-Aug-30 17:26N 40°50' E 014°16'1718.9
2015-Aug-30 16:33N 40°33' E 014°14'1716.8
2015-Aug-30 15:33N 40°50' E 014°15'1716.5
2015-Aug-30 14:32N 40°33' E 014°14'0 0.0
2015-Aug-30 13:33N 40°33' E 014°14'0 0.0
2015-Aug-30 12:33N 40°33' E 014°14'2 2.0
2015-Aug-30 11:33N 40°35' E 014°16'1513.3
2015-Aug-30 10:26N 40°50' E 014°16'1719.0
2015-Aug-30 09:33N 40°33' E 014°14'0 0.0
2015-Aug-30 08:30N 40°33' E 014°14'17 8.1
2015-Aug-30 06:26N 40°50' E 014°16'1 0.1
2015-Aug-29 17:24N 40°50' E 014°17'1719.5
2015-Aug-29 16:33N 40°33' E 014°14'1713.5
2015-Aug-29 15:19N 40°50' E 014°16'1721.5
2015-Aug-29 14:33N 40°33' E 014°14'1 0.8
2015-Aug-29 13:33N 40°34' E 014°14'1 0.5
2015-Aug-29 12:33N 40°34' E 014°14'0 0.0
2015-Aug-29 11:33N 40°34' E 014°14'0 0.5
2015-Aug-29 10:33N 40°33' E 014°14'1711.2
2015-Aug-29 09:04N 40°50' E 014°16'1325.5
2015-Aug-29 08:34N 40°37' E 014°15'9 9.4
2015-Aug-29 07:33N 40°46' E 014°17'2 0.2
2015-Aug-28 18:33N 40°49' E 014°17'1212.1
2015-Aug-28 17:33N 40°37' E 014°16'1110.4
2015-Aug-28 16:31N 40°48' E 014°17'1414.6
2015-Aug-28 15:32N 40°33' E 014°14'1713.1
2015-Aug-28 14:16N 40°50' E 014°17'1623.4
2015-Aug-28 13:33N 40°34' E 014°15'0 0.3
2015-Aug-28 12:33N 40°33' E 014°14'3 2.7
2015-Aug-28 11:33N 40°35' E 014°17'5 4.9
2015-Aug-28 10:33N 40°38' E 014°23'8 7.7
2015-Aug-28 09:33N 40°33' E 014°14'3 3.4
2015-Aug-28 08:32N 40°37' E 014°16'13 0.8
2015-Aug-27 16:33N 40°50' E 014°17'1716.6
2015-Aug-27 15:33N 40°33' E 014°14'1712.6
2015-Aug-27 14:13N 40°50' E 014°17'1724.8
2015-Aug-27 13:33N 40°33' E 014°15'0 0.2
2015-Aug-27 12:33N 40°33' E 014°14'1 1.5
2015-Aug-27 11:34N 40°34' E 014°16'6 6.2
2015-Aug-27 10:33N 40°38' E 014°23'6 2.7
2015-Aug-27 08:25N 40°36' E 014°30'1213.6
2015-Aug-27 07:33N 40°33' E 014°15'16 1.1
2015-Aug-26 16:33N 40°49' E 014°17'1615.9
2015-Aug-26 15:32N 40°33' E 014°14'1712.1
2015-Aug-26 14:10N 40°50' E 014°17'1524.6
2015-Aug-26 13:33N 40°35' E 014°15'2 1.8
2015-Aug-26 12:33N 40°33' E 014°14'1 0.6
2015-Aug-26 11:34N 40°34' E 014°15'1613.1
2015-Aug-26 10:18N 40°50' E 014°17'1721.7
2015-Aug-26 09:32N 40°33' E 014°14'0 0.0
2015-Aug-26 08:31N 40°33' E 014°14'15 0.9
2015-Aug-25 16:32N 40°48' E 014°17'1515.0
2015-Aug-25 15:33N 40°33' E 014°14'1713.0
2015-Aug-25 14:16N 40°50' E 014°16'1622.0
2015-Aug-25 13:34N 40°35' E 014°16'2 1.5
2015-Aug-25 12:33N 40°33' E 014°14'1 0.8
2015-Aug-25 11:33N 40°34' E 014°15'6 6.4
2015-Aug-25 10:33N 40°38' E 014°21'7 7.1
2015-Aug-25 09:33N 40°33' E 014°15'16 0.9
2015-Aug-24 16:33N 40°49' E 014°17'1616.0
2015-Aug-24 15:33N 40°33' E 014°14'1611.9
2015-Aug-24 14:10N 40°50' E 014°17'1524.3
2015-Aug-24 13:33N 40°35' E 014°15'2 1.5
2015-Aug-24 12:33N 40°34' E 014°14'3 3.2
2015-Aug-24 11:33N 40°37' E 014°16'1311.6
2015-Aug-24 10:24N 40°50' E 014°17'1619.6
2015-Aug-24 09:33N 40°33' E 014°14'0 0.0
2015-Aug-24 08:31N 40°33' E 014°14'10 0.7
2015-Aug-23 17:33N 40°44' E 014°14'1010.4
2015-Aug-23 16:33N 40°33' E 014°14'1712.7
2015-Aug-23 15:14N 40°50' E 014°16'1623.3
2015-Aug-23 14:33N 40°34' E 014°15'1 0.6
2015-Aug-23 13:33N 40°34' E 014°14'0 0.5
2015-Aug-23 12:34N 40°34' E 014°14'1 1.5
2015-Aug-23 11:33N 40°34' E 014°16'1612.8
2015-Aug-23 10:20N 40°50' E 014°17'1620.4
2015-Aug-23 09:32N 40°33' E 014°14'0 0.0
2015-Aug-23 08:33N 40°33' E 014°14'17 1.1
2015-Aug-22 17:27N 40°50' E 014°17'1718.7
2015-Aug-22 16:33N 40°33' E 014°14'1713.0
2015-Aug-22 15:17N 40°50' E 014°17'1722.7
2015-Aug-22 14:33N 40°33' E 014°14'0 0.2
2015-Aug-22 13:33N 40°34' E 014°14'0 0.0
2015-Aug-22 12:33N 40°34' E 014°14'2 1.5
2015-Aug-22 11:33N 40°35' E 014°16'1513.5
2015-Aug-22 10:25N 40°50' E 014°17'1718.0
2015-Aug-22 09:30N 40°33' E 014°14'0 0.0
2015-Aug-22 08:33N 40°33' E 014°14'  

Dump ship's entire track history